PAMR/MRI METAR and TAF weather

Enter ICAO airport designator
Station Type Date Time Source
PAMR METAR 2019/12/05 15:46 UTC NOAA

PAMR 051546Z 35005KT 1SM BR VV003 M11/M13 A2987 RMK AO2 T11061128 $


Station Type Date Time Source
PAMR Decoded METAR 2019/12/05 15:46 UTC NOAA

ANCHORAGE MERRILL FIELD, AK, United States (PAMR) 61-13N 149-51W
Dec 05, 2019 - 10:46 AM EST / 2019.12.05 1546 UTC
Wind: from the N (350 degrees) at 6 MPH (5 KT):0
Visibility: 1 mile(s):0
Sky conditions: obscured
Weather: mist
Temperature: 12.9 F (-10.6 C)
Windchill: 3 F (-16 C):1
Dew Point: 9.0 F (-12.8 C)
Relative Humidity: 83%
Pressure (altimeter): 29.87 in. Hg (1011 hPa)
ob: PAMR 051546Z 35005KT 1SM BR VV003 M11/M13 A2987 RMK AO2 T11061128
cycle: 16

Station Type Date Time Source
PAMR TAF UTC NOAA

Error!

Example: see airport list